Time;durP1;ratioP1;P1;durP2;ratioP2;P2;SDS_P1;SDS_P2;PMS_P1;PMS_P2;Temp;Humidity;BMP_temperature;BMP_pressure;BME280_temperature;BME280_humidity;BME280_pressure;Samples;Min_cycle;Max_cycle;Signal;HPM_P1;HPM_P2
2021/08/26 00:00:12;;;;;;;13.93;12.73;;;13.60;99.90;;;;;;4927185;29;20241;-79
2021/08/26 00:05:48;;;;;;;15.33;13.83;;;13.60;99.90;;;;;;4916019;29;20568;-79
2021/08/26 00:08:16;;;;;;;12.77;11.77;;;13.60;99.90;;;;;;4916344;29;20234;-79
2021/08/26 00:10:43;;;;;;;14.70;13.40;;;13.60;99.90;;;;;;4924025;29;20218;-79
2021/08/26 00:13:11;;;;;;;12.97;11.00;;;13.60;99.90;;;;;;4926153;29;20210;-79
2021/08/26 00:15:41;;;;;;;11.83;10.70;;;13.60;99.90;;;;;;4922211;29;20373;-79
2021/08/26 00:18:08;;;;;;;11.67;10.47;;;13.60;99.90;;;;;;4913331;29;20241;-79
2021/08/26 00:20:36;;;;;;;11.80;10.07;;;13.60;99.90;;;;;;4911640;29;20278;-79
2021/08/26 00:23:04;;;;;;;10.57;9.50;;;13.60;99.90;;;;;;4922412;29;20323;-79
2021/08/26 00:25:30;;;;;;;11.10;9.87;;;13.60;99.90;;;;;;4917481;29;20207;-79
2021/08/26 00:27:57;;;;;;;11.13;9.93;;;13.60;99.90;;;;;;4921525;29;20198;-79
2021/08/26 00:30:25;;;;;;;10.60;9.60;;;13.60;99.90;;;;;;4920481;29;20216;-79
2021/08/26 00:32:52;;;;;;;11.10;9.93;;;13.60;99.90;;;;;;4917135;29;20209;-79
2021/08/26 00:35:19;;;;;;;10.70;9.70;;;13.50;99.90;;;;;;4919477;29;20645;-79
2021/08/26 00:37:48;;;;;;;11.90;10.70;;;13.50;99.90;;;;;;4914024;29;20197;-79
2021/08/26 00:40:15;;;;;;;11.43;10.30;;;13.50;99.90;;;;;;4915822;29;20278;-79
2021/08/26 00:42:42;;;;;;;11.67;10.57;;;13.40;99.90;;;;;;4919291;29;20206;-79
2021/08/26 00:45:10;;;;;;;11.23;10.10;;;13.40;99.90;;;;;;4917039;29;20255;-79
2021/08/26 00:47:38;;;;;;;12.53;11.43;;;13.40;99.90;;;;;;4925232;29;20201;-80
2021/08/26 00:50:06;;;;;;;11.37;10.27;;;13.30;99.90;;;;;;4920200;29;20229;-79
2021/08/26 00:52:37;;;;;;;8.30;6.10;;;13.30;99.90;;;;;;4923141;29;20275;-79
2021/08/26 00:55:06;;;;;;;9.03;6.47;;;13.30;99.90;;;;;;4918720;29;20597;-79
2021/08/26 00:57:34;;;;;;;8.43;6.53;;;13.30;99.90;;;;;;4916305;29;20198;-79
2021/08/26 01:00:04;;;;;;;9.20;6.43;;;13.20;99.90;;;;;;4922120;29;20290;-79
2021/08/26 01:02:36;;;;;;;8.73;6.30;;;13.20;99.90;;;;;;4923346;29;20217;-79
2021/08/26 01:05:09;;;;;;;8.53;6.10;;;13.10;99.90;;;;;;4917548;29;20255;-79
2021/08/26 01:07:43;;;;;;;9.40;6.73;;;13.10;99.90;;;;;;4916567;29;20203;-79
2021/08/26 01:10:15;;;;;;;8.23;6.57;;;13.00;99.90;;;;;;4915891;29;20248;-79
2021/08/26 01:12:46;;;;;;;7.87;6.23;;;12.90;99.90;;;;;;4922725;29;20206;-79
2021/08/26 01:15:13;;;;;;;8.53;6.47;;;12.80;99.90;;;;;;4924342;29;20221;-80
2021/08/26 01:17:45;;;;;;;12.70;11.50;;;12.80;99.90;;;;;;4924034;29;20216;-79
2021/08/26 01:20:13;;;;;;;11.17;10.07;;;12.70;99.90;;;;;;4922690;29;20235;-79
2021/08/26 01:22:40;;;;;;;12.87;10.70;;;12.70;99.90;;;;;;4917312;29;20254;-79
2021/08/26 01:25:09;;;;;;;9.20;8.07;;;12.70;99.90;;;;;;4930053;29;20251;-79
2021/08/26 01:27:41;;;;;;;11.37;9.53;;;12.70;99.90;;;;;;4938409;29;20193;-79
2021/08/26 01:30:11;;;;;;;8.40;6.27;;;12.60;99.90;;;;;;4923866;29;20222;-79
2021/08/26 01:32:38;;;;;;;9.53;6.87;;;12.60;99.90;;;;;;4927836;29;20212;-79
2021/08/26 01:35:07;;;;;;;10.63;9.53;;;12.60;99.90;;;;;;4915842;29;20231;-79
2021/08/26 01:37:34;;;;;;;9.17;8.27;;;12.60;99.90;;;;;;4925952;29;20261;-79
2021/08/26 01:40:00;;;;;;;11.47;10.27;;;12.60;99.90;;;;;;4922811;29;20293;-79
2021/08/26 01:42:28;;;;;;;12.77;9.03;;;12.60;99.90;;;;;;4922778;29;20685;-79
2021/08/26 01:44:56;;;;;;;8.97;7.00;;;12.50;99.90;;;;;;4918429;29;20637;-79
2021/08/26 01:47:24;;;;;;;8.70;6.97;;;12.50;99.90;;;;;;4917690;29;20252;-79
2021/08/26 01:49:53;;;;;;;9.33;6.47;;;12.40;99.90;;;;;;4918538;29;20228;-79
2021/08/26 01:52:22;;;;;;;9.90;7.40;;;12.40;99.90;;;;;;4924596;29;20659;-79
2021/08/26 01:54:50;;;;;;;9.93;8.93;;;12.40;99.90;;;;;;4919956;29;20215;-79
2021/08/26 01:57:17;;;;;;;11.23;7.97;;;12.30;99.90;;;;;;4922525;29;20206;-79
2021/08/26 01:59:45;;;;;;;9.63;6.90;;;12.30;99.90;;;;;;4916108;29;20779;-79
2021/08/26 02:02:13;;;;;;;11.87;9.57;;;12.20;99.90;;;;;;4921231;29;20201;-79
2021/08/26 02:04:40;;;;;;;11.13;10.03;;;12.20;99.90;;;;;;4922556;29;20615;-79
2021/08/26 02:07:06;;;;;;;8.47;6.20;;;12.10;99.90;;;;;;4916334;29;20307;-79
2021/08/26 02:09:33;;;;;;;9.20;7.60;;;12.10;99.90;;;;;;4912976;29;20776;-79
2021/08/26 02:12:00;;;;;;;8.70;6.60;;;12.10;99.90;;;;;;4924869;29;20255;-79
2021/08/26 02:14:27;;;;;;;10.20;7.07;;;12.10;99.90;;;;;;4917685;29;20246;-79
2021/08/26 02:16:54;;;;;;;10.43;7.27;;;12.10;99.90;;;;;;4925388;29;20203;-79
2021/08/26 02:19:23;;;;;;;9.57;7.90;;;12.10;99.90;;;;;;4920635;29;20284;-79
2021/08/26 02:21:49;;;;;;;13.07;11.90;;;12.10;99.90;;;;;;4923499;29;20200;-79
2021/08/26 02:24:17;;;;;;;13.43;12.27;;;12.10;99.90;;;;;;4922057;29;20204;-79
2021/08/26 02:26:43;;;;;;;13.67;12.53;;;12.10;99.90;;;;;;4921347;29;20688;-79
2021/08/26 02:29:10;;;;;;;13.13;12.03;;;12.10;99.90;;;;;;4924329;29;20648;-79
2021/08/26 02:31:37;;;;;;;13.50;12.27;;;12.10;99.90;;;;;;4917909;29;20294;-79
2021/08/26 02:34:04;;;;;;;12.97;11.70;;;12.00;99.90;;;;;;4922682;29;20198;-80
2021/08/26 02:36:32;;;;;;;13.27;12.07;;;12.10;99.90;;;;;;4923893;29;20196;-79
2021/08/26 02:38:59;;;;;;;13.23;12.00;;;12.10;99.90;;;;;;4920304;29;20703;-79
2021/08/26 02:41:26;;;;;;;13.13;11.87;;;12.20;99.90;;;;;;4919132;29;20267;-79
2021/08/26 02:43:53;;;;;;;14.40;13.10;;;12.20;99.90;;;;;;4914608;29;20255;-80
2021/08/26 02:46:19;;;;;;;13.27;12.07;;;12.10;99.90;;;;;;4925434;29;20200;-79
2021/08/26 02:48:46;;;;;;;13.17;11.97;;;12.10;99.90;;;;;;4920645;29;20219;-79
2021/08/26 02:51:13;;;;;;;13.40;12.10;;;12.10;99.90;;;;;;4923245;29;20207;-79
2021/08/26 02:53:41;;;;;;;12.87;11.77;;;12.10;99.90;;;;;;4926493;29;20200;-79
2021/08/26 02:56:08;;;;;;;14.27;13.07;;;12.10;99.90;;;;;;4926024;29;20224;-79
2021/08/26 02:58:38;;;;;;;13.90;12.50;;;12.00;99.90;;;;;;4921250;29;20235;-79
2021/08/26 03:01:12;;;;;;;13.87;12.57;;;12.00;99.90;;;;;;4908784;29;20303;-79
2021/08/26 03:03:56;;;;;;;14.03;12.67;;;12.00;99.90;;;;;;4924208;29;20671;-79
2021/08/26 03:06:43;;;;;;;13.03;11.93;;;12.00;99.90;;;;;;4923562;29;20200;-80
2021/08/26 03:09:29;;;;;;;12.93;11.63;;;11.90;99.90;;;;;;4918077;29;20219;-79
2021/08/26 03:11:56;;;;;;;14.10;12.90;;;11.90;99.90;;;;;;4900225;29;20201;-79
2021/08/26 03:14:23;;;;;;;14.20;13.00;;;11.90;99.90;;;;;;4916304;29;20660;-79
2021/08/26 03:16:50;;;;;;;13.80;12.50;;;11.90;99.90;;;;;;4918354;29;20204;-79
2021/08/26 03:19:16;;;;;;;13.67;12.43;;;11.90;99.90;;;;;;4924137;29;20223;-79
2021/08/26 03:21:43;;;;;;;13.10;12.00;;;11.80;99.90;;;;;;4919296;29;20208;-79
2021/08/26 03:24:10;;;;;;;13.43;12.23;;;11.80;99.90;;;;;;4925136;29;20719;-79
2021/08/26 03:26:38;;;;;;;17.50;12.47;;;11.80;99.90;;;;;;4919822;29;20267;-78
2021/08/26 03:29:05;;;;;;;13.20;12.00;;;11.90;99.90;;;;;;4918275;29;20223;-79
2021/08/26 03:31:32;;;;;;;15.07;13.77;;;11.90;99.90;;;;;;4922291;29;20211;-79
2021/08/26 03:34:02;;;;;;;13.33;12.13;;;11.90;99.90;;;;;;4916121;29;20200;-79
2021/08/26 03:36:29;;;;;;;13.93;12.47;;;12.00;99.90;;;;;;4905672;29;20574;-80
2021/08/26 03:38:56;;;;;;;13.70;12.40;;;12.00;99.90;;;;;;4904623;29;20304;-80
2021/08/26 03:41:23;;;;;;;13.53;12.23;;;12.10;99.90;;;;;;4904870;29;20255;-81
2021/08/26 03:43:52;;;;;;;12.30;11.27;;;12.10;99.90;;;;;;4905777;29;20208;-80
2021/08/26 03:46:19;;;;;;;13.93;12.63;;;12.10;99.90;;;;;;4910189;29;20205;-80
2021/08/26 03:48:46;;;;;;;14.03;12.63;;;12.10;99.90;;;;;;4908819;29;20252;-80
2021/08/26 03:51:12;;;;;;;14.20;12.77;;;12.10;99.90;;;;;;4910339;29;20221;-80
2021/08/26 03:53:39;;;;;;;13.17;11.97;;;12.00;99.90;;;;;;4909696;29;20250;-80
2021/08/26 03:56:06;;;;;;;14.37;12.93;;;12.10;99.90;;;;;;4920142;29;20710;-79
2021/08/26 03:58:34;;;;;;;14.43;13.03;;;12.10;99.90;;;;;;4915850;29;20253;-80
2021/08/26 04:01:03;;;;;;;15.30;13.90;;;12.10;99.90;;;;;;4917366;29;20214;-80
2021/08/26 04:03:30;;;;;;;14.03;12.50;;;12.00;99.90;;;;;;4925912;29;20267;-80
2021/08/26 04:05:57;;;;;;;13.90;12.60;;;12.10;99.90;;;;;;4920864;29;20283;-79
2021/08/26 04:08:24;;;;;;;14.57;13.27;;;12.10;99.90;;;;;;4926083;29;20204;-79
2021/08/26 04:10:50;;;;;;;14.33;13.03;;;12.10;99.90;;;;;;4915905;29;20210;-79
2021/08/26 04:13:17;;;;;;;14.33;13.03;;;12.10;99.90;;;;;;4922462;29;20673;-79
2021/08/26 04:15:44;;;;;;;14.40;12.90;;;12.10;99.90;;;;;;4924544;29;20229;-80
2021/08/26 04:18:12;;;;;;;13.83;12.63;;;12.00;99.90;;;;;;4925883;29;20201;-80
2021/08/26 04:20:42;;;;;;;13.97;12.73;;;12.00;99.90;;;;;;4918776;29;20671;-80
2021/08/26 04:23:09;;;;;;;13.63;12.40;;;12.00;99.90;;;;;;4927032;29;20204;-81
2021/08/26 04:25:36;;;;;;;14.37;13.00;;;12.00;99.90;;;;;;4916885;29;20209;-80
2021/08/26 04:28:08;;;;;;;14.70;13.20;;;11.90;99.90;;;;;;4910395;29;20303;-79
2021/08/26 04:30:35;;;;;;;15.07;13.77;;;12.00;99.90;;;;;;4917322;29;20566;-78
2021/08/26 04:33:04;;;;;;;14.23;13.03;;;11.90;99.90;;;;;;4918795;29;20212;-79
2021/08/26 04:35:32;;;;;;;13.67;12.57;;;11.90;99.90;;;;;;4918886;29;20290;-79
2021/08/26 04:37:59;;;;;;;13.83;12.63;;;12.00;99.90;;;;;;4920396;29;20656;-79
2021/08/26 04:40:26;;;;;;;14.13;12.83;;;12.00;99.90;;;;;;4922465;29;20232;-79
2021/08/26 04:42:53;;;;;;;14.33;13.13;;;12.00;99.90;;;;;;4921524;29;20199;-78
2021/08/26 04:45:19;;;;;;;14.10;12.90;;;12.00;99.90;;;;;;4916276;29;20258;-79
2021/08/26 04:47:46;;;;;;;14.87;13.47;;;12.10;99.90;;;;;;4915974;29;20200;-78
2021/08/26 04:50:13;;;;;;;14.77;13.53;;;12.10;99.90;;;;;;4912576;29;20247;-78
2021/08/26 04:52:42;;;;;;;14.10;12.80;;;12.10;99.90;;;;;;4923005;29;20197;-80
2021/08/26 04:55:09;;;;;;;13.60;12.40;;;12.10;99.90;;;;;;4913124;29;20232;-78
2021/08/26 04:57:36;;;;;;;15.13;13.63;;;12.20;99.90;;;;;;4924039;29;20258;-79
2021/08/26 05:00:05;;;;;;;14.53;13.13;;;12.30;99.90;;;;;;4924953;29;20224;-79
2021/08/26 05:02:32;;;;;;;14.07;12.87;;;12.30;99.90;;;;;;4913548;29;20217;-81
2021/08/26 05:04:59;;;;;;;14.03;12.83;;;12.30;99.90;;;;;;4903525;29;20206;-80
2021/08/26 05:07:26;;;;;;;14.33;13.13;;;12.40;99.90;;;;;;4911386;29;20206;-80
2021/08/26 05:09:54;;;;;;;15.37;14.07;;;12.50;99.90;;;;;;4905719;29;20222;-80
2021/08/26 05:12:21;;;;;;;14.70;13.40;;;12.50;99.90;;;;;;4909355;29;20265;-80
2021/08/26 05:14:49;;;;;;;15.37;13.87;;;12.60;99.90;;;;;;4916751;29;20587;-80
2021/08/26 05:17:17;;;;;;;15.43;14.00;;;12.60;99.90;;;;;;4907817;29;20218;-79
2021/08/26 05:19:44;;;;;;;15.03;13.63;;;12.60;99.90;;;;;;4912748;29;20210;-80
2021/08/26 05:22:11;;;;;;;15.43;14.13;;;12.70;99.90;;;;;;4908996;29;20202;-79
2021/08/26 05:24:38;;;;;;;15.60;14.23;;;12.70;99.90;;;;;;4912466;29;20234;-80
2021/08/26 05:27:06;;;;;;;15.83;14.40;;;12.70;99.90;;;;;;4909197;29;20793;-79
2021/08/26 05:29:34;;;;;;;14.47;13.27;;;12.80;99.90;;;;;;4913264;29;20225;-78
2021/08/26 05:32:02;;;;;;;15.57;14.17;;;12.80;99.90;;;;;;4907013;29;20213;-79
2021/08/26 05:34:28;;;;;;;14.20;13.00;;;12.90;99.90;;;;;;4904310;29;20213;-79
2021/08/26 05:36:55;;;;;;;14.70;13.30;;;12.90;99.90;;;;;;4911381;29;20284;-79
2021/08/26 05:39:25;;;;;;;14.30;13.10;;;13.00;99.90;;;;;;4922395;29;20225;-81
2021/08/26 05:41:51;;;;;;;14.27;12.93;;;13.00;99.90;;;;;;4922549;29;20692;-79
2021/08/26 05:44:19;;;;;;;13.90;12.70;;;13.10;99.90;;;;;;4928002;29;20202;-79
2021/08/26 05:46:47;;;;;;;13.80;12.63;;;13.20;99.90;;;;;;4923515;29;20194;-78
2021/08/26 05:49:16;;;;;;;13.57;12.37;;;13.30;99.90;;;;;;4919334;29;20225;-79
2021/08/26 05:51:56;;;;;;;13.83;12.73;;;13.40;99.90;;;;;;4904009;29;20205;-80
2021/08/26 05:54:23;;;;;;;13.63;12.53;;;13.50;99.90;;;;;;4920774;29;20682;-79
2021/08/26 05:56:51;;;;;;;13.77;12.67;;;13.50;99.90;;;;;;4923267;29;20642;-78
2021/08/26 05:59:19;;;;;;;14.13;12.83;;;13.50;99.90;;;;;;4916924;29;20253;-79
2021/08/26 06:01:46;;;;;;;10.70;7.23;;;13.60;99.90;;;;;;4907678;29;20241;-79
2021/08/26 06:04:12;;;;;;;7.73;6.40;;;13.50;99.90;;;;;;4922599;29;20717;-81
2021/08/26 06:06:39;;;;;;;8.93;6.87;;;13.60;99.90;;;;;;4929527;29;20730;-79
2021/08/26 06:09:06;;;;;;;11.23;10.23;;;13.60;99.90;;;;;;4921396;29;20227;-80
2021/08/26 06:11:33;;;;;;;11.27;10.23;;;13.60;99.90;;;;;;4924316;29;20201;-79
2021/08/26 06:14:00;;;;;;;9.40;7.50;;;13.70;99.90;;;;;;4927000;29;20206;-80
2021/08/26 06:16:28;;;;;;;8.63;6.60;;;13.80;99.90;;;;;;4921192;29;20667;-79
2021/08/26 06:18:55;;;;;;;8.67;7.10;;;13.90;99.90;;;;;;4923927;29;20298;-79
2021/08/26 06:21:21;;;;;;;7.17;6.47;;;14.00;99.90;;;;;;4927691;29;20679;-79
2021/08/26 06:23:48;;;;;;;8.10;6.83;;;14.10;99.90;;;;;;4924597;29;20259;-80
2021/08/26 06:26:15;;;;;;;8.50;6.70;;;14.20;99.90;;;;;;4923687;29;20562;-79
2021/08/26 06:28:42;;;;;;;11.63;8.43;;;14.30;99.90;;;;;;4917804;29;20227;-79
2021/08/26 06:31:09;;;;;;;13.27;12.13;;;14.30;99.90;;;;;;4924283;29;20211;-79
2021/08/26 06:33:37;;;;;;;8.63;6.93;;;14.40;99.90;;;;;;4919200;29;20231;-79
2021/08/26 06:36:04;;;;;;;8.53;7.63;;;14.40;99.90;;;;;;4923861;29;20218;-79
2021/08/26 06:38:31;;;;;;;8.90;6.87;;;14.40;99.90;;;;;;4920501;29;20278;-81
2021/08/26 06:40:58;;;;;;;13.47;12.37;;;14.40;99.90;;;;;;4925543;29;20250;-80
2021/08/26 06:43:25;;;;;;;8.30;6.47;;;14.40;99.90;;;;;;4928581;29;20274;-79
2021/08/26 06:45:52;;;;;;;8.80;6.97;;;14.40;99.90;;;;;;4918903;29;20250;-79
2021/08/26 06:48:19;;;;;;;8.53;6.90;;;14.40;99.90;;;;;;4927017;29;20262;-79
2021/08/26 06:50:47;;;;;;;10.27;7.40;;;14.40;99.90;;;;;;4917751;29;20207;-79
2021/08/26 06:53:14;;;;;;;9.83;8.73;;;14.40;99.90;;;;;;4925024;29;20254;-80
2021/08/26 06:55:41;;;;;;;9.80;7.43;;;14.40;99.90;;;;;;4926167;29;20216;-81
2021/08/26 06:58:08;;;;;;;8.67;7.43;;;14.40;99.90;;;;;;4926861;29;20299;-79
2021/08/26 07:00:34;;;;;;;9.43;7.03;;;14.50;99.90;;;;;;4919476;29;20203;-79
2021/08/26 07:03:01;;;;;;;7.83;6.37;;;14.50;99.90;;;;;;4920330;29;20638;-79
2021/08/26 07:05:28;;;;;;;8.93;6.63;;;14.50;99.90;;;;;;4920977;29;20268;-80
2021/08/26 07:07:56;;;;;;;9.67;6.97;;;14.60;99.90;;;;;;4922961;29;20212;-79
2021/08/26 07:10:23;;;;;;;7.77;6.90;;;14.60;99.90;;;;;;4917131;29;20705;-78
2021/08/26 07:12:49;;;;;;;8.43;6.97;;;14.70;99.90;;;;;;4915724;29;20196;-79
2021/08/26 07:15:16;;;;;;;7.33;6.30;;;14.80;99.90;;;;;;4920070;29;20212;-79
2021/08/26 07:17:43;;;;;;;7.73;6.50;;;14.90;99.90;;;;;;4924371;29;20597;-80
2021/08/26 07:20:12;;;;;;;8.13;6.67;;;14.90;99.90;;;;;;4917544;29;20228;-79
2021/08/26 07:22:39;;;;;;;10.33;9.33;;;15.00;99.90;;;;;;4925610;29;20212;-79
2021/08/26 07:25:08;;;;;;;10.57;9.57;;;15.10;99.90;;;;;;4919184;29;20196;-80
2021/08/26 07:27:34;;;;;;;11.23;10.23;;;15.10;99.90;;;;;;4918355;29;20203;-79
2021/08/26 07:30:01;;;;;;;11.63;10.53;;;15.20;99.90;;;;;;4915412;29;20231;-79
2021/08/26 07:32:28;;;;;;;8.53;6.90;;;15.20;99.90;;;;;;4913303;29;20675;-80
2021/08/26 07:34:55;;;;;;;8.77;6.93;;;15.20;99.90;;;;;;4920253;29;20201;-79
2021/08/26 07:37:22;;;;;;;8.20;6.23;;;15.20;99.90;;;;;;4917956;29;20769;-80
2021/08/26 07:39:48;;;;;;;8.33;6.50;;;15.20;99.90;;;;;;4931079;29;20642;-79
2021/08/26 07:42:16;;;;;;;8.93;6.93;;;15.20;99.90;;;;;;4924238;29;20214;-80
2021/08/26 07:44:43;;;;;;;7.00;5.77;;;15.20;99.90;;;;;;4926032;29;20258;-79
2021/08/26 07:47:10;;;;;;;6.97;6.20;;;15.20;99.90;;;;;;4920992;29;20255;-80
2021/08/26 07:49:37;;;;;;;8.60;7.33;;;15.10;99.90;;;;;;4917299;29;20224;-79
2021/08/26 07:52:04;;;;;;;8.10;6.47;;;15.10;99.90;;;;;;4922425;29;20774;-81
2021/08/26 07:54:31;;;;;;;10.47;6.80;;;15.10;99.90;;;;;;4916524;29;20559;-79
2021/08/26 07:56:58;;;;;;;8.00;6.30;;;15.00;99.90;;;;;;4923530;29;20215;-79
2021/08/26 07:59:26;;;;;;;9.20;6.63;;;15.10;99.90;;;;;;4916512;29;20227;-79
2021/08/26 08:01:53;;;;;;;6.97;5.77;;;15.00;99.90;;;;;;4926405;29;20196;-80
2021/08/26 08:04:20;;;;;;;8.70;6.27;;;15.00;99.90;;;;;;4920210;29;20197;-79
2021/08/26 08:06:48;;;;;;;7.83;6.53;;;14.90;99.90;;;;;;4920281;29;20265;-79
2021/08/26 08:09:14;;;;;;;8.13;6.47;;;14.90;99.90;;;;;;4917167;29;20236;-79
2021/08/26 08:11:41;;;;;;;7.43;6.63;;;14.90;99.90;;;;;;4924186;29;20215;-79
2021/08/26 08:14:08;;;;;;;8.40;7.17;;;14.90;99.90;;;;;;4922251;29;20277;-79
2021/08/26 08:16:36;;;;;;;7.70;6.20;;;14.90;99.90;;;;;;4921016;29;20614;-80
2021/08/26 08:19:04;;;;;;;9.17;7.07;;;15.00;99.90;;;;;;4923795;29;20226;-79
2021/08/26 08:21:31;;;;;;;9.00;7.00;;;15.10;99.90;;;;;;4921038;29;20211;-80
2021/08/26 08:23:58;;;;;;;9.13;7.33;;;15.10;99.90;;;;;;4919818;29;20220;-80
2021/08/26 08:26:25;;;;;;;13.33;12.23;;;15.20;99.90;;;;;;4918530;29;20211;-83
2021/08/26 08:28:52;;;;;;;8.67;7.00;;;15.30;99.90;;;;;;4913492;29;20240;-80
2021/08/26 08:31:18;;;;;;;11.20;10.20;;;15.30;99.90;;;;;;4914428;29;20265;-79
2021/08/26 08:33:47;;;;;;;12.83;11.63;;;15.40;99.90;;;;;;4920333;29;20211;-81
2021/08/26 08:36:14;;;;;;;13.47;12.37;;;15.40;99.90;;;;;;4918345;29;20299;-80
2021/08/26 08:38:41;;;;;;;7.70;6.07;;;15.50;99.90;;;;;;4915924;29;20233;-79
2021/08/26 08:41:08;;;;;;;11.90;10.87;;;15.50;99.90;;;;;;4919613;29;20200;-80
2021/08/26 08:43:35;;;;;;;8.97;6.33;;;15.50;99.90;;;;;;4928326;29;20199;-80
2021/08/26 08:46:03;;;;;;;9.90;6.77;;;15.60;99.90;;;;;;4920613;29;20226;-81
2021/08/26 08:48:31;;;;;;;8.90;6.70;;;15.60;99.90;;;;;;4914549;29;20279;-79
2021/08/26 08:51:00;;;;;;;8.33;6.63;;;15.60;99.90;;;;;;4918664;29;20209;-79
2021/08/26 08:53:27;;;;;;;9.80;8.80;;;15.80;99.90;;;;;;4917185;29;20625;-80
2021/08/26 08:55:54;;;;;;;9.07;6.50;;;15.90;99.90;;;;;;4931016;29;20205;-80
2021/08/26 08:58:21;;;;;;;11.40;10.50;;;16.00;99.90;;;;;;4916452;29;20293;-80
2021/08/26 09:00:48;;;;;;;12.30;11.10;;;16.00;99.90;;;;;;4911402;29;20237;-79
2021/08/26 09:03:14;;;;;;;13.27;12.17;;;16.10;99.90;;;;;;4923618;29;20206;-79
2021/08/26 09:05:54;;;;;;;10.23;8.47;;;16.00;99.90;;;;;;4918254;29;20674;-80
2021/08/26 09:08:23;;;;;;;7.47;6.00;;;16.00;99.90;;;;;;4917184;29;20220;-80
2021/08/26 09:10:52;;;;;;;7.20;6.20;;;15.90;99.90;;;;;;4928646;29;20257;-79
2021/08/26 09:13:30;;;;;;;7.80;6.50;;;15.90;99.90;;;;;;4918289;29;20211;-80
2021/08/26 09:15:57;;;;;;;9.37;7.50;;;15.80;99.90;;;;;;4916316;29;20199;-79
2021/08/26 09:18:23;;;;;;;8.20;6.90;;;15.80;99.90;;;;;;4915143;29;20237;-79
2021/08/26 09:20:53;;;;;;;8.50;6.70;;;15.80;99.90;;;;;;4910417;29;20201;-80
2021/08/26 09:23:20;;;;;;;9.10;7.40;;;15.70;99.90;;;;;;4911389;29;20208;-82
2021/08/26 09:25:48;;;;;;;10.03;7.50;;;15.60;99.90;;;;;;4921186;29;20262;-80
2021/08/26 09:28:30;;;;;;;9.27;7.10;;;15.50;99.90;;;;;;4920433;29;20189;-79
2021/08/26 09:31:11;;;;;;;9.10;7.47;;;15.50;99.90;;;;;;4917624;29;20662;-79
2021/08/26 09:33:56;;;;;;;10.00;8.40;;;15.40;99.90;;;;;;4923511;29;20310;-79
2021/08/26 09:36:24;;;;;;;10.33;7.17;;;15.40;99.90;;;;;;4922093;29;20191;-81
2021/08/26 09:38:54;;;;;;;12.40;8.93;;;15.30;99.90;;;;;;4918950;29;20311;-79
2021/08/26 09:41:39;;;;;;;9.30;7.57;;;15.30;99.90;;;;;;4919438;29;20706;-79
2021/08/26 09:44:08;;;;;;;10.83;8.13;;;15.40;99.90;;;;;;4918960;29;20212;-79
2021/08/26 09:46:35;;;;;;;10.47;8.27;;;15.30;99.90;;;;;;4927643;29;20350;-80
2021/08/26 09:49:04;;;;;;;9.60;7.63;;;15.40;99.90;;;;;;4919535;29;20224;-80
2021/08/26 09:51:31;;;;;;;10.87;8.53;;;15.50;99.90;;;;;;4919657;29;20217;-80
2021/08/26 09:53:58;;;;;;;10.13;8.23;;;15.40;99.90;;;;;;4926775;29;20743;-79
2021/08/26 09:56:25;;;;;;;10.40;7.83;;;15.50;99.90;;;;;;4925120;29;20204;-81
2021/08/26 09:58:56;;;;;;;10.30;7.30;;;15.60;99.90;;;;;;4920536;29;20229;-79
2021/08/26 10:01:23;;;;;;;11.30;7.53;;;15.70;99.90;;;;;;4923210;29;20359;-80
2021/08/26 10:03:51;;;;;;;9.17;7.47;;;15.70;99.90;;;;;;4925148;29;20688;-79
2021/08/26 10:06:19;;;;;;;11.40;9.87;;;15.80;99.90;;;;;;4925759;29;20212;-80
2021/08/26 10:08:48;;;;;;;9.90;7.63;;;15.90;99.90;;;;;;4920414;29;20247;-80
2021/08/26 10:11:18;;;;;;;9.93;8.07;;;16.00;99.90;;;;;;4922604;29;20211;-80
2021/08/26 10:13:45;;;;;;;10.77;9.33;;;16.10;99.90;;;;;;4926302;29;20220;-80
2021/08/26 10:16:13;;;;;;;10.37;8.50;;;16.20;99.90;;;;;;4920295;29;20208;-81
2021/08/26 10:18:43;;;;;;;11.60;9.93;;;16.20;99.90;;;;;;4915307;29;20234;-81
2021/08/26 10:21:10;;;;;;;11.23;10.03;;;16.10;99.90;;;;;;4910800;29;20263;-80
2021/08/26 10:23:39;;;;;;;9.90;8.20;;;16.20;99.90;;;;;;4913691;29;20215;-81
2021/08/26 10:26:07;;;;;;;15.90;14.50;;;16.20;99.90;;;;;;4925644;29;20273;-81
2021/08/26 10:28:41;;;;;;;14.00;12.63;;;16.30;99.90;;;;;;4907715;29;20661;-81
2021/08/26 10:31:35;;;;;;;15.77;14.33;;;16.30;99.90;;;;;;4907275;29;20557;-81
2021/08/26 10:40:51;;;;;;;13.13;9.73;;;16.10;99.90;;;;;;4941367;23;20763;-81
2021/08/26 10:43:56;;;;;;;11.63;9.27;;;16.10;99.90;;;;;;4924373;29;20207;-80
2021/08/26 10:47:16;;;;;;;11.37;9.20;;;16.10;99.90;;;;;;4922059;29;20265;-80
2021/08/26 10:50:18;;;;;;;11.53;9.60;;;16.10;99.90;;;;;;4906319;29;20241;-81
2021/08/26 10:53:03;;;;;;;11.80;9.77;;;16.10;99.90;;;;;;4906064;29;20216;-84
2021/08/26 10:55:38;;;;;;;13.57;10.43;;;16.10;99.90;;;;;;4916014;29;20305;-81
2021/08/26 11:01:10;;;;;;;10.90;9.13;;;16.40;99.90;;;;;;4910824;29;20228;-77
2021/08/26 11:03:59;;;;;;;15.47;14.07;;;16.50;99.90;;;;;;4906234;29;20291;-78
2021/08/26 11:06:47;;;;;;;15.43;13.93;;;16.70;99.90;;;;;;4917153;29;20202;-78
2021/08/26 11:09:34;;;;;;;12.10;10.90;;;16.70;99.90;;;;;;4928612;29;20582;-79
2021/08/26 11:12:21;;;;;;;9.93;7.90;;;16.70;99.90;;;;;;4911547;29;20705;-78
2021/08/26 11:14:49;;;;;;;14.37;13.17;;;16.70;99.90;;;;;;4912188;29;20279;-79
2021/08/26 11:17:34;;;;;;;14.07;12.87;;;16.50;99.90;;;;;;4914131;29;20218;-79
2021/08/26 11:20:29;;;;;;;13.77;12.70;;;16.50;99.90;;;;;;4916677;29;20216;-78
2021/08/26 11:23:06;;;;;;;15.77;14.57;;;16.40;99.90;;;;;;4905480;29;20198;-78
2021/08/26 11:25:33;;;;;;;8.33;7.43;;;16.10;99.90;;;;;;4909780;29;20213;-78
2021/08/26 11:28:31;;;;;;;8.17;7.00;;;16.00;99.90;;;;;;4909751;29;20206;-78
2021/08/26 11:31:21;;;;;;;8.43;6.70;;;16.00;99.90;;;;;;4909179;29;20215;-78
2021/08/26 11:33:49;;;;;;;6.57;5.30;;;15.90;99.90;;;;;;4915277;29;20193;-78
2021/08/26 11:36:17;;;;;;;5.80;5.30;;;15.90;99.90;;;;;;4911438;29;20692;-78
2021/08/26 11:38:56;;;;;;;5.57;5.00;;;16.00;99.90;;;;;;4914341;29;20227;-78
2021/08/26 11:41:23;;;;;;;5.27;4.77;;;16.20;99.90;;;;;;4914668;29;20205;-78
2021/08/26 11:43:50;;;;;;;4.70;4.27;;;16.40;99.90;;;;;;4910208;29;20284;-78
2021/08/26 11:46:18;;;;;;;4.80;4.40;;;16.50;99.90;;;;;;4916099;29;20264;-79
2021/08/26 11:48:57;;;;;;;10.87;10.17;;;16.70;99.90;;;;;;4910128;29;20224;-78
2021/08/26 11:51:31;;;;;;;4.67;3.97;;;16.80;99.90;;;;;;4914118;29;20677;-78
2021/08/26 11:54:17;;;;;;;12.27;11.47;;;16.90;99.90;;;;;;4911004;29;20260;-78
2021/08/26 11:56:46;;;;;;;4.13;3.73;;;17.10;99.90;;;;;;4915288;29;20207;-78
2021/08/26 11:59:27;;;;;;;3.87;3.57;;;17.20;99.90;;;;;;4910832;29;20387;-78
2021/08/26 12:02:19;;;;;;;4.77;3.60;;;17.30;99.90;;;;;;4919240;29;20291;-79
2021/08/26 12:04:47;;;;;;;4.20;3.50;;;17.20;99.90;;;;;;4910537;29;20259;-78
2021/08/26 12:07:27;;;;;;;3.70;3.40;;;17.20;99.90;;;;;;4914448;29;20206;-78
2021/08/26 12:10:04;;;;;;;5.47;4.27;;;17.40;99.90;;;;;;4911686;29;20220;-79
2021/08/26 12:12:32;;;;;;;5.30;4.13;;;17.60;99.90;;;;;;4910146;29;20201;-78
2021/08/26 12:15:00;;;;;;;5.23;4.57;;;17.60;99.90;;;;;;4910947;29;20200;-78
2021/08/26 12:17:27;;;;;;;5.00;4.50;;;17.60;99.90;;;;;;4914187;29;20223;-78
2021/08/26 12:19:56;;;;;;;5.90;5.30;;;17.50;99.90;;;;;;4912959;29;20591;-78
2021/08/26 12:22:25;;;;;;;5.17;4.67;;;17.50;99.90;;;;;;4915808;29;20207;-80
2021/08/26 12:24:55;;;;;;;11.50;10.50;;;17.50;99.90;;;;;;4913401;29;20692;-78
2021/08/26 12:27:24;;;;;;;11.60;10.80;;;17.40;99.90;;;;;;4914034;29;20233;-79
2021/08/26 12:29:52;;;;;;;6.13;5.63;;;17.50;99.90;;;;;;4912250;29;20767;-78
2021/08/26 12:32:28;;;;;;;5.40;4.87;;;17.60;99.90;;;;;;4912854;29;20228;-79
2021/08/26 12:35:12;;;;;;;5.20;4.70;;;17.50;99.90;;;;;;4910999;29;20231;-78
2021/08/26 12:37:59;;;;;;;6.47;5.10;;;17.50;99.90;;;;;;4907624;29;20278;-77
2021/08/26 12:40:28;;;;;;;9.80;9.00;;;17.30;99.90;;;;;;4911602;29;20763;-78
2021/08/26 12:43:07;;;;;;;5.60;5.00;;;17.10;99.90;;;;;;4906418;29;20191;-77
2021/08/26 12:45:36;;;;;;;5.50;4.60;;;16.90;99.90;;;;;;4913495;29;20704;-76
2021/08/26 12:48:23;;;;;;;12.07;11.03;;;16.80;99.90;;;;;;4909248;29;20273;-77
2021/08/26 12:51:04;;;;;;;7.13;4.77;;;16.70;99.90;;;;;;4904873;29;20200;-78
2021/08/26 12:53:31;;;;;;;12.83;11.90;;;16.70;99.90;;;;;;4907847;29;20209;-78
2021/08/26 12:55:58;;;;;;;7.23;5.57;;;16.60;99.90;;;;;;4910471;29;20203;-78
2021/08/26 12:58:27;;;;;;;6.37;5.67;;;16.60;99.90;;;;;;4911668;29;20227;-78
2021/08/26 13:00:55;;;;;;;6.43;5.73;;;16.60;99.90;;;;;;4906886;29;20204;-79